Time;durP1;ratioP1;P1;durP2;ratioP2;P2;SDS_P1;SDS_P2;PMS_P1;PMS_P2;Temp;Humidity;BMP_temperature;BMP_pressure;BME280_temperature;BME280_humidity;BME280_pressure;Samples;Min_cycle;Max_cycle;Signal;HPM_P1;HPM_P2
2022/07/09 00:00:59;;;;;;;;;10.75;7.50;;;;;22.43;47.57;102245.13;5077509;27;46532;-58
2022/07/09 00:03:24;;;;;;;;;3.50;3.50;;;;;22.43;48.11;102255.97;5078417;27;45196;-59
2022/07/09 00:05:50;;;;;;;;;5.00;5.00;;;;;22.40;47.92;102250.75;5077471;27;45384;-60
2022/07/09 00:08:15;;;;;;;;;9.00;8.00;;;;;22.40;47.90;102254.38;5077639;27;45557;-58
2022/07/09 00:10:41;;;;;;;;;16.33;13.33;;;;;22.29;48.27;102238.94;5077109;27;45323;-59
2022/07/09 00:13:07;;;;;;;;;7.00;7.00;;;;;22.32;48.37;102249.53;5076993;27;45448;-57
2022/07/09 00:15:32;;;;;;;;;21.33;16.67;;;;;22.27;48.21;102254.47;5075746;27;45464;-59
2022/07/09 00:17:58;;;;;;;;;7.33;7.00;;;;;22.23;48.17;102247.56;5076262;28;45451;-60
2022/07/09 00:20:23;;;;;;;;;6.00;6.00;;;;;22.21;48.73;102254.09;5075747;27;47739;-59
2022/07/09 00:22:48;;;;;;;;;8.67;8.00;;;;;22.15;48.79;102249.16;5077665;27;45381;-59
2022/07/09 00:25:14;;;;;;;;;6.67;6.33;;;;;22.14;48.77;102251.00;5077413;27;45630;-58
2022/07/09 00:27:39;;;;;;;;;7.33;6.00;;;;;22.13;48.08;102251.97;5077243;27;45310;-62
2022/07/09 00:30:05;;;;;;;;;6.33;6.33;;;;;22.10;49.03;102245.94;5076713;27;46440;-60
2022/07/09 00:32:30;;;;;;;;;5.00;4.33;;;;;22.06;48.72;102245.31;5092526;27;45837;-60
2022/07/09 00:34:56;;;;;;;;;7.33;5.67;;;;;22.02;48.68;102238.38;5076971;27;45888;-59
2022/07/09 00:37:21;;;;;;;;;10.67;7.00;;;;;22.02;48.67;102238.38;5077035;27;45842;-58
2022/07/09 00:39:47;;;;;;;;;7.00;7.00;;;;;21.96;48.84;102234.28;5076847;28;45267;-60
2022/07/09 00:42:12;;;;;;;;;8.50;6.25;;;;;21.95;49.21;102231.72;5076567;27;45337;-60
2022/07/09 00:44:38;;;;;;;;;7.00;5.00;;;;;21.83;49.66;102232.66;5076666;27;45382;-59
2022/07/09 00:47:08;;;;;;;;;4.67;4.67;;;;;21.85;49.38;102231.56;5076813;27;45257;-58
2022/07/09 00:49:42;;;;;;;;;7.00;6.00;;;;;21.88;49.75;102235.91;5076381;27;45483;-59
2022/07/09 00:52:10;;;;;;;;;8.67;7.00;;;;;21.81;49.45;102234.63;5075000;28;45378;-59
2022/07/09 00:54:36;;;;;;;;;7.33;7.33;;;;;21.81;49.41;102237.34;5076717;27;45350;-59
2022/07/09 00:57:05;;;;;;;;;5.00;4.67;;;;;21.75;49.84;102234.13;5075706;28;45241;-59
2022/07/09 00:59:32;;;;;;;;;7.00;6.67;;;;;21.73;49.74;102237.91;5076442;27;47047;-60
2022/07/09 01:01:59;;;;;;;;;7.67;7.67;;;;;21.75;50.03;102233.28;5092016;27;45418;-59
2022/07/09 01:04:25;;;;;;;;;7.33;7.33;;;;;21.77;49.52;102234.03;5076457;27;45400;-59
2022/07/09 01:06:51;;;;;;;;;5.00;5.00;;;;;21.73;49.94;102222.53;5076765;27;45304;-60
2022/07/09 01:09:16;;;;;;;;;5.67;5.67;;;;;21.72;49.97;102226.22;5076140;27;46123;-61
2022/07/09 01:11:42;;;;;;;;;7.33;7.33;;;;;21.74;49.48;102224.25;5076533;28;45243;-61
2022/07/09 01:14:07;;;;;;;;;6.67;6.67;;;;;21.71;49.68;102224.50;5076592;27;45188;-62
2022/07/09 01:16:34;;;;;;;;;7.33;5.00;;;;;21.65;49.84;102221.44;5076845;27;45621;-61
2022/07/09 01:19:00;;;;;;;;;7.33;6.00;;;;;21.56;50.16;102220.28;5076151;27;45366;-60
2022/07/09 01:21:26;;;;;;;;;8.00;5.67;;;;;21.51;50.47;102211.66;5076088;27;45358;-59
2022/07/09 01:23:51;;;;;;;;;9.33;6.67;;;;;21.50;50.24;102215.34;5076550;27;45324;-60
2022/07/09 01:26:19;;;;;;;;;7.00;7.00;;;;;21.47;50.38;102204.72;5076221;27;45296;-59
2022/07/09 01:28:45;;;;;;;;;8.00;7.00;;;;;21.54;50.28;102215.97;5075785;27;46224;-59
2022/07/09 01:31:11;;;;;;;;;8.67;8.00;;;;;21.53;50.04;102204.28;5078939;27;45353;-60
2022/07/09 01:33:36;;;;;;;;;7.00;7.00;;;;;21.49;50.23;102197.38;5079643;27;45328;-58
2022/07/09 01:36:02;;;;;;;;;7.00;7.00;;;;;21.49;50.51;102198.25;5079806;27;45247;-58
2022/07/09 01:38:27;;;;;;;;;6.33;5.33;;;;;21.44;50.63;102197.72;5079512;27;46197;-59
2022/07/09 01:40:52;;;;;;;;;6.00;6.00;;;;;21.50;50.75;102193.69;5078617;27;45420;-59
2022/07/09 01:43:18;;;;;;;;;8.00;8.00;;;;;21.51;50.66;102205.38;5079637;27;45226;-60
2022/07/09 01:45:43;;;;;;;;;5.33;5.33;;;;;21.53;50.37;102204.28;5079638;27;45631;-59
2022/07/09 01:48:09;;;;;;;;;7.00;6.67;;;;;21.51;50.43;102195.41;5079088;27;45310;-59
2022/07/09 01:50:34;;;;;;;;;6.00;6.00;;;;;21.51;50.60;102198.13;5079504;27;45183;-58
2022/07/09 01:52:59;;;;;;;;;11.00;7.67;;;;;21.48;50.40;102185.69;5079628;27;45302;-59
2022/07/09 01:55:25;;;;;;;;;7.00;7.00;;;;;21.54;50.68;102192.47;5061890;28;45551;-59
2022/07/09 01:57:50;;;;;;;;;10.67;9.00;;;;;21.56;50.71;102192.34;5079219;27;45802;-58
2022/07/09 02:00:18;;;;;;;;;6.33;6.33;;;;;21.51;50.54;102183.72;5079403;27;45320;-59
2022/07/09 02:02:43;;;;;;;;;9.67;8.67;;;;;21.48;50.86;102179.38;5078535;27;45498;-58
2022/07/09 02:05:09;;;;;;;;;10.67;9.67;;;;;21.52;50.57;102177.31;5079848;27;45490;-60
2022/07/09 02:07:35;;;;;;;;;7.00;7.00;;;;;21.45;50.70;102176.91;5079802;27;46051;-60
2022/07/09 02:10:01;;;;;;;;;7.33;6.00;;;;;21.38;51.17;102179.25;5077971;27;45457;-60
2022/07/09 02:12:26;;;;;;;;;9.33;8.00;;;;;21.36;51.17;102185.78;5079271;27;45507;-60
2022/07/09 02:14:51;;;;;;;;;9.00;7.33;;;;;21.30;51.25;102175.41;5079733;27;45537;-60
2022/07/09 02:17:17;;;;;;;;;6.67;6.67;;;;;21.24;51.53;102182.13;5079067;27;46698;-60
2022/07/09 02:19:42;;;;;;;;;7.00;7.00;;;;;21.12;51.61;102170.38;5078725;27;45235;-59
2022/07/09 02:22:08;;;;;;;;;6.33;6.33;;;;;21.16;51.76;102182.69;5079127;27;45195;-58
2022/07/09 02:24:33;;;;;;;;;11.00;6.33;;;;;21.13;51.57;102163.97;5078078;27;45238;-60
2022/07/09 02:26:59;;;;;;;;;8.67;8.67;;;;;21.17;51.64;102170.88;5078703;27;46040;-59
2022/07/09 02:29:24;;;;;;;;;7.67;7.67;;;;;21.15;51.65;102167.44;5077288;27;45294;-59
2022/07/09 02:31:50;;;;;;;;;7.00;7.00;;;;;21.17;51.67;102179.00;5077701;28;45319;-58
2022/07/09 02:34:15;;;;;;;;;9.00;9.00;;;;;21.04;51.62;102144.88;5078960;27;45234;-60
2022/07/09 02:36:40;;;;;;;;;8.00;8.00;;;;;21.08;51.83;102155.34;5078590;27;45662;-60
2022/07/09 02:39:06;;;;;;;;;7.67;7.67;;;;;21.20;51.78;102170.63;5078607;27;45307;-58
2022/07/09 02:41:31;;;;;;;;;9.33;8.00;;;;;21.09;51.91;102156.19;5078614;27;45247;-58
2022/07/09 02:43:56;;;;;;;;;8.00;8.00;;;;;21.06;52.03;102160.00;5079179;27;45285;-60
2022/07/09 02:46:22;;;;;;;;;6.67;6.67;;;;;21.03;52.21;102162.94;5078058;27;46059;-60
2022/07/09 02:48:47;;;;;;;;;5.00;5.00;;;;;20.98;52.35;102170.56;5078278;27;45544;-59
2022/07/09 02:51:12;;;;;;;;;9.00;9.00;;;;;20.95;52.46;102176.16;5078587;27;45276;-60
2022/07/09 02:53:38;;;;;;;;;8.00;8.00;;;;;20.92;52.47;102166.44;5078784;27;45329;-62
2022/07/09 02:56:04;;;;;;;;;8.00;8.00;;;;;20.92;52.65;102176.41;5078197;27;45981;-61
2022/07/09 02:58:31;;;;;;;;;10.67;9.00;;;;;20.86;52.93;102168.75;5078673;27;45838;-58
2022/07/09 03:00:56;;;;;;;;;11.00;9.00;;;;;20.81;53.14;102173.63;5078526;27;45441;-60
2022/07/09 03:03:23;;;;;;;;;12.00;10.33;;;;;20.78;53.41;102174.72;5078521;27;45496;-60
2022/07/09 03:05:48;;;;;;;;;9.00;9.00;;;;;20.74;53.58;102172.38;5078074;27;45422;-60
2022/07/09 03:08:14;;;;;;;;;12.67;11.67;;;;;20.68;53.43;102176.38;5078128;27;45189;-60
2022/07/09 03:10:40;;;;;;;;;10.00;10.00;;;;;20.67;53.44;102171.94;5078177;27;45373;-60
2022/07/09 03:13:05;;;;;;;;;10.33;9.33;;;;;20.69;53.11;102169.13;5078481;27;45393;-62
2022/07/09 03:15:31;;;;;;;;;10.67;10.67;;;;;20.72;53.17;102174.34;5078049;27;46223;-58
2022/07/09 03:17:57;;;;;;;;;9.67;9.67;;;;;20.75;53.17;102176.81;5078525;27;45386;-61
2022/07/09 03:20:22;;;;;;;;;10.67;9.67;;;;;20.76;53.14;102181.22;5078184;27;45309;-61
2022/07/09 03:22:47;;;;;;;;;10.00;10.00;;;;;20.73;53.34;102179.63;5078412;27;45586;-61
2022/07/09 03:25:13;;;;;;;;;8.67;8.67;;;;;20.70;53.48;102176.25;5077659;27;45370;-59
2022/07/09 03:27:38;;;;;;;;;8.67;8.00;;;;;20.67;53.38;102179.19;5077814;27;45434;-59
2022/07/09 03:30:05;;;;;;;;;10.00;9.67;;;;;20.60;53.43;102176.97;5077629;27;45337;-60
2022/07/09 03:32:30;;;;;;;;;11.00;9.33;;;;;20.56;53.63;102185.38;5077595;27;45372;-59
2022/07/09 03:34:56;;;;;;;;;9.67;9.00;;;;;20.54;53.80;102187.34;5077622;27;46049;-59
2022/07/09 03:37:21;;;;;;;;;7.67;7.67;;;;;20.45;54.13;102188.03;5077964;27;45865;-62
2022/07/09 03:39:48;;;;;;;;;9.67;9.67;;;;;20.42;53.94;102182.81;5077898;27;45400;-60
2022/07/09 03:42:14;;;;;;;;;8.33;8.00;;;;;20.43;53.82;102179.16;5077762;27;45272;-60
2022/07/09 03:44:39;;;;;;;;;9.67;8.00;;;;;20.26;53.73;102146.06;5075971;27;46608;-59
2022/07/09 03:47:06;;;;;;;;;8.00;8.00;;;;;20.41;54.05;102176.53;5077329;27;45421;-60
2022/07/09 03:49:32;;;;;;;;;13.00;10.00;;;;;20.42;53.98;102180.97;5078395;28;45378;-59
2022/07/09 03:51:58;;;;;;;;;8.33;8.33;;;;;20.44;53.86;102187.13;5078102;27;45621;-61
2022/07/09 03:54:23;;;;;;;;;10.00;9.00;;;;;20.46;53.59;102179.81;5077020;27;45384;-58
2022/07/09 03:56:49;;;;;;;;;9.00;7.67;;;;;20.41;53.62;102179.22;5077384;27;45419;-59
2022/07/09 03:59:15;;;;;;;;;9.67;9.67;;;;;20.37;53.85;102199.34;5077312;27;45319;-59
2022/07/09 04:01:40;;;;;;;;;11.33;10.00;;;;;20.32;53.90;102196.13;5077649;27;45318;-59
2022/07/09 04:04:05;;;;;;;;;10.67;9.00;;;;;20.33;53.99;102200.56;5077060;27;46271;-59
2022/07/09 04:06:31;;;;;;;;;10.00;9.00;;;;;20.29;53.95;102186.38;5077501;27;45270;-59
2022/07/09 04:08:57;;;;;;;;;8.00;8.00;;;;;20.39;53.92;102204.63;5075945;28;45409;-59
2022/07/09 04:11:22;;;;;;;;;10.67;9.00;;;;;20.40;54.10;102212.63;5077313;27;45600;-59
2022/07/09 04:13:47;;;;;;;;;7.67;7.67;;;;;20.44;53.88;102213.28;5076989;27;46612;-59
2022/07/09 04:16:13;;;;;;;;;9.00;9.00;;;;;20.44;53.67;102216.88;5076967;27;45249;-59
2022/07/09 04:18:42;;;;;;;;;8.67;8.67;;;;;20.41;54.15;102208.94;5077126;28;45200;-59
2022/07/09 04:21:08;;;;;;;;;14.00;12.67;;;;;20.42;53.95;102216.13;5076961;27;45468;-58
2022/07/09 04:23:34;;;;;;;;;8.00;8.00;;;;;20.37;54.12;102195.78;5077224;27;46571;-60
2022/07/09 04:25:59;;;;;;;;;8.33;8.33;;;;;20.45;54.12;102205.09;5077160;27;45340;-58
2022/07/09 04:28:24;;;;;;;;;10.33;9.00;;;;;20.44;54.14;102206.06;5077007;27;45264;-60
2022/07/09 04:30:50;;;;;;;;;9.00;7.33;;;;;20.43;54.58;102207.03;5076901;27;45388;-59
2022/07/09 04:33:15;;;;;;;;;7.00;6.00;;;;;20.35;54.53;102214.81;5075453;28;46199;-58
2022/07/09 04:35:41;;;;;;;;;11.00;10.00;;;;;20.32;54.84;102209.63;5077005;27;45509;-60
2022/07/09 04:38:06;;;;;;;;;9.00;9.00;;;;;20.26;54.95;102207.34;5076955;27;45424;-60
2022/07/09 04:40:32;;;;;;;;;7.00;7.00;;;;;20.30;54.75;102203.44;5077381;27;45473;-60
2022/07/09 04:42:57;;;;;;;;;9.67;8.00;;;;;20.27;54.84;102190.16;5076751;27;46170;-59
2022/07/09 04:45:23;;;;;;;;;9.67;9.67;;;;;20.36;54.74;102194.91;5076613;27;45189;-58
2022/07/09 04:47:48;;;;;;;;;8.67;8.67;;;;;20.37;54.51;102201.19;5077383;27;45227;-58
2022/07/09 04:50:14;;;;;;;;;8.00;8.00;;;;;20.35;54.88;102204.00;5077202;27;45583;-59
2022/07/09 04:52:40;;;;;;;;;9.33;9.00;;;;;20.35;55.09;102198.59;5076921;27;45467;-58
2022/07/09 04:55:06;;;;;;;;;8.00;8.00;;;;;20.38;54.89;102203.78;5077047;27;45803;-61
2022/07/09 04:57:32;;;;;;;;;8.00;8.00;;;;;20.36;54.96;102210.28;5077265;27;45259;-61
2022/07/09 05:00:03;;;;;;;;;11.33;11.33;;;;;20.27;55.20;102207.25;5077051;27;45543;-60
2022/07/09 05:02:28;;;;;;;;;11.00;10.67;;;;;20.23;55.10;102202.19;5077088;27;46366;-58
2022/07/09 05:04:54;;;;;;;;;9.33;9.33;;;;;20.25;55.49;102201.09;5075088;27;45235;-59
2022/07/09 05:07:19;;;;;;;;;11.67;11.33;;;;;20.20;55.46;102195.16;5076668;27;45211;-59
2022/07/09 05:09:44;;;;;;;;;12.33;12.00;;;;;20.18;55.41;102201.63;5076521;27;45219;-60
2022/07/09 05:12:10;;;;;;;;;13.33;12.00;;;;;20.19;55.50;102203.38;5076220;27;46336;-61
2022/07/09 05:14:39;;;;;;;;;10.00;9.00;;;;;20.20;55.16;102199.69;5076550;27;45798;-61
2022/07/09 05:17:05;;;;;;;;;13.33;12.00;;;;;20.23;55.17;102210.28;5076710;27;45440;-58
2022/07/09 05:19:31;;;;;;;;;16.33;14.33;;;;;20.26;55.45;102212.75;5076517;27;45321;-59
2022/07/09 05:21:57;;;;;;;;;11.00;11.00;;;;;20.22;55.26;102209.41;5076319;27;45392;-58
2022/07/09 05:24:22;;;;;;;;;14.00;12.33;;;;;20.21;55.19;102198.72;5076280;27;45386;-59
2022/07/09 05:26:48;;;;;;;;;12.67;12.67;;;;;20.20;55.37;102208.66;5075652;28;45307;-61
2022/07/09 05:29:14;;;;;;;;;11.33;11.33;;;;;20.18;55.49;102205.22;5076834;27;45207;-61
2022/07/09 05:31:40;;;;;;;;;15.00;13.67;;;;;20.10;55.34;102198.63;5075880;28;45353;-60
2022/07/09 05:34:05;;;;;;;;;12.33;12.33;;;;;20.18;55.51;102209.72;5076584;27;45282;-60
2022/07/09 05:36:31;;;;;;;;;13.67;11.33;;;;;20.11;55.45;102208.44;5075156;28;45266;-59
2022/07/09 05:38:57;;;;;;;;;16.33;13.67;;;;;20.04;55.60;102200.75;5076345;27;45493;-58
2022/07/09 05:41:24;;;;;;;;;12.33;12.33;;;;;20.01;55.66;102206.38;5075629;27;45566;-58
2022/07/09 05:43:50;;;;;;;;;16.33;12.67;;;;;19.99;56.07;102211.03;5074264;28;45477;-60
2022/07/09 05:46:15;;;;;;;;;17.00;17.00;;;;;19.96;56.10;102203.16;5075602;27;45468;-59
2022/07/09 05:48:41;;;;;;;;;16.00;14.33;;;;;19.90;56.05;102187.38;5076063;27;45343;-59
2022/07/09 05:51:06;;;;;;;;;13.67;13.67;;;;;20.08;56.39;102197.88;5076144;27;46003;-60
2022/07/09 05:53:32;;;;;;;;;12.67;11.67;;;;;20.11;55.90;102200.34;5078862;27;44763;-60
2022/07/09 05:55:57;;;;;;;;;18.67;16.00;;;;;20.16;55.70;102206.28;5076910;27;45424;-59
2022/07/09 05:58:23;;;;;;;;;16.67;15.00;;;;;20.14;55.69;102205.53;5076099;27;45547;-59
2022/07/09 06:00:48;;;;;;;;;17.33;15.00;;;;;20.16;55.62;102208.97;5075485;27;45544;-61
2022/07/09 06:03:13;;;;;;;;;11.33;11.33;;;;;20.21;55.45;102207.69;5075656;27;45432;-60
2022/07/09 06:05:39;;;;;;;;;16.00;13.00;;;;;20.30;55.47;102214.25;5076118;27;45310;-60
2022/07/09 06:08:04;;;;;;;;;11.00;11.00;;;;;20.32;55.71;102209.63;5076081;27;45388;-60
2022/07/09 06:10:30;;;;;;;;;13.00;13.00;;;;;20.33;54.86;102206.81;5075359;27;47198;-59
2022/07/09 06:12:55;;;;;;;;;17.00;14.33;;;;;20.23;55.42;102194.06;5075281;27;45242;-60
2022/07/09 06:15:20;;;;;;;;;15.67;15.67;;;;;20.25;55.82;102213.72;5075892;27;45314;-59
2022/07/09 06:17:46;;;;;;;;;17.00;15.67;;;;;20.20;55.87;102199.69;5079367;27;45349;-61
2022/07/09 06:20:11;;;;;;;;;18.00;14.00;;;;;20.17;56.20;102206.16;5078907;27;46112;-60
2022/07/09 06:22:38;;;;;;;;;14.00;12.67;;;;;20.27;55.86;102207.25;5079964;27;45436;-60
2022/07/09 06:25:05;;;;;;;;;11.67;10.67;;;;;20.38;55.56;102217.28;5079541;27;45350;-60
2022/07/09 06:27:30;;;;;;;;;11.67;11.67;;;;;20.44;55.57;102214.16;5077602;27;45337;-60
2022/07/09 06:29:56;;;;;;;;;10.67;10.67;;;;;20.41;55.57;102205.38;5078428;27;45453;-60
2022/07/09 06:32:21;;;;;;;;;19.33;16.67;;;;;20.41;55.47;102208.94;5078615;27;45445;-60
2022/07/09 06:34:46;;;;;;;;;19.00;17.67;;;;;20.42;55.85;102210.72;5079005;27;45333;-60
2022/07/09 06:37:12;;;;;;;;;16.67;15.33;;;;;20.36;55.84;102205.72;5078967;27;45597;-58
2022/07/09 06:39:47;;;;;;;;;13.67;11.67;;;;;20.36;55.68;102202.16;5078520;27;45420;-60
2022/07/09 06:42:14;;;;;;;;;16.33;16.33;;;;;20.41;55.66;102208.94;5078429;27;45444;-60
2022/07/09 06:44:40;;;;;;;;;18.00;17.00;;;;;20.42;55.66;102210.72;5077531;27;45334;-63
2022/07/09 06:47:09;;;;;;;;;12.67;12.67;;;;;20.52;55.60;102216.31;5078833;27;45639;-60
2022/07/09 06:49:34;;;;;;;;;13.00;11.00;;;;;20.57;55.41;102215.03;5078702;27;46471;-60
2022/07/09 06:52:00;;;;;;;;;11.33;11.33;;;;;20.61;55.39;102208.41;5078440;27;45478;-59
2022/07/09 06:54:25;;;;;;;;;15.33;15.00;;;;;20.66;54.90;102212.63;5078791;27;45453;-60
2022/07/09 06:56:51;;;;;;;;;14.67;14.67;;;;;20.68;55.22;102211.53;5078526;27;45361;-60
2022/07/09 06:59:18;;;;;;;;;14.67;14.00;;;;;20.75;54.97;102212.81;5078121;27;46322;-61
2022/07/09 07:01:44;;;;;;;;;12.00;12.00;;;;;20.77;54.93;102210.00;5078178;27;45424;-60
2022/07/09 07:04:11;;;;;;;;;12.33;12.33;;;;;20.82;54.69;102213.22;5078431;28;45357;-60
2022/07/09 07:06:37;;;;;;;;;11.33;11.33;;;;;20.85;54.55;102204.91;5078437;27;45566;-61
2022/07/09 07:09:03;;;;;;;;;12.33;12.33;;;;;20.83;54.95;102202.31;5077879;27;46127;-59
2022/07/09 07:11:28;;;;;;;;;12.67;12.67;;;;;20.78;54.80;102190.94;5078105;28;45318;-58
2022/07/09 07:13:53;;;;;;;;;12.33;12.33;;;;;20.97;54.56;102209.41;5078485;27;45394;-59
2022/07/09 07:16:19;;;;;;;;;13.00;13.00;;;;;21.04;54.15;102212.50;5079221;27;45478;-60
2022/07/09 07:18:45;;;;;;;;;12.33;12.33;;;;;21.10;54.42;102210.22;5078568;27;46032;-60
2022/07/09 07:21:11;;;;;;;;;13.67;13.00;;;;;21.09;54.27;102194.06;5079251;27;45512;-59
2022/07/09 07:23:36;;;;;;;;;8.00;8.00;;;;;20.98;54.23;102200.31;5079866;27;45267;-62
2022/07/09 07:26:02;;;;;;;;;11.00;11.00;;;;;21.09;54.19;102205.75;5078451;27;45347;-60
2022/07/09 07:28:27;;;;;;;;;12.00;12.00;;;;;21.14;53.78;102198.19;5092540;27;46834;-58
2022/07/09 07:30:52;;;;;;;;;14.00;12.67;;;;;21.23;53.65;102201.19;5077441;27;45416;-59
2022/07/09 07:33:18;;;;;;;;;10.33;10.33;;;;;21.28;53.55;102212.53;5077736;27;45536;-60
2022/07/09 07:35:44;;;;;;;;;13.00;10.67;;;;;21.29;53.51;102209.72;5078119;27;45623;-59
2022/07/09 07:38:10;;;;;;;;;13.67;11.67;;;;;21.36;53.67;102207.41;5077824;27;46171;-58
2022/07/09 07:40:36;;;;;;;;;10.33;9.67;;;;;21.38;53.49;102195.50;5076445;28;45365;-61
2022/07/09 07:43:02;;;;;;;;;16.00;15.33;;;;;21.51;53.23;102214.38;5077462;27;45310;-59
2022/07/09 07:45:28;;;;;;;;;8.67;8.67;;;;;21.44;52.87;102202.25;5077950;27;45470;-58
2022/07/09 07:47:54;;;;;;;;;10.00;10.00;;;;;21.51;53.02;102200.81;5075857;27;45907;-61
2022/07/09 07:50:22;;;;;;;;;12.33;11.33;;;;;21.63;53.06;102210.72;5077294;27;45366;-60
2022/07/09 07:52:48;;;;;;;;;11.67;11.67;;;;;21.67;52.80;102195.94;5077404;27;45405;-60
2022/07/09 07:55:13;;;;;;;;;10.67;9.67;;;;;21.77;52.54;102191.56;5078140;27;45239;-59
2022/07/09 07:57:39;;;;;;;;;8.00;8.00;;;;;21.89;52.13;102208.69;5077473;28;46111;-59
2022/07/09 08:00:05;;;;;;;;;9.00;9.00;;;;;21.88;51.83;102192.56;5077353;27;45391;-59
2022/07/09 08:02:31;;;;;;;;;11.33;10.00;;;;;21.89;52.03;102178.03;5077331;27;45900;-60
2022/07/09 08:04:57;;;;;;;;;12.33;11.00;;;;;21.97;51.79;102197.22;5076358;27;45996;-60
2022/07/09 08:07:22;;;;;;;;;11.67;10.33;;;;;22.03;51.64;102191.34;5077358;27;46189;-61
2022/07/09 08:09:48;;;;;;;;;10.00;10.00;;;;;22.16;52.46;102191.28;5075834;27;45453;-59
2022/07/09 08:12:13;;;;;;;;;9.00;9.00;;;;;22.19;51.24;102189.16;5077938;27;45414;-59
2022/07/09 08:14:39;;;;;;;;;6.50;6.50;;;;;22.34;50.37;102195.22;5077728;27;45481;-60
2022/07/09 08:17:05;;;;;;;;;11.33;9.67;;;;;22.33;50.40;102182.63;5077059;27;46190;-59
2022/07/09 08:19:31;;;;;;;;;8.00;8.00;;;;;22.35;49.76;102191.50;5076842;27;45277;-59
2022/07/09 08:21:56;;;;;;;;;8.33;7.00;;;;;22.36;49.93;102185.97;5075859;27;45360;-60
2022/07/09 08:24:22;;;;;;;;;9.75;9.75;;;;;22.50;49.97;102187.56;5075705;27;45487;-61
2022/07/09 08:26:47;;;;;;;;;9.75;9.75;;;;;22.58;50.07;102176.94;5076919;27;46116;-61
2022/07/09 08:29:13;;;;;;;;;8.25;8.25;;;;;22.76;48.73;102180.00;5076843;27;45400;-60
2022/07/09 08:31:38;;;;;;;;;8.00;8.00;;;;;23.02;49.43;102174.28;5077238;27;45239;-61
2022/07/09 08:34:04;;;;;;;;;9.50;9.50;;;;;23.60;47.17;102180.25;5077303;27;45590;-67
2022/07/09 08:36:29;;;;;;;;;8.00;8.00;;;;;24.16;45.80;102174.41;5077089;27;45233;-60
2022/07/09 08:38:54;;;;;;;;;9.50;7.50;;;;;24.68;44.16;102168.75;5077392;27;45357;-60
2022/07/09 08:41:22;;;;;;;;;5.75;4.75;;;;;25.31;43.29;102175.75;5077752;27;45204;-60
2022/07/09 08:43:52;;;;;;;;;7.75;6.75;;;;;25.93;43.05;102167.09;5077307;27;45239;-60
2022/07/09 08:46:18;;;;;;;;;5.00;5.00;;;;;26.48;41.86;102139.03;5075320;27;45476;-59
2022/07/09 08:48:45;;;;;;;;;6.20;6.20;;;;;27.11;41.34;102160.91;5075239;28;45358;-60
2022/07/09 08:51:11;;;;;;;;;6.80;5.80;;;;;27.71;37.71;102161.09;5074911;27;45302;-60
2022/07/09 08:53:44;;;;;;;;;4.00;4.00;;;;;27.99;36.93;102156.31;5077149;27;45196;-62
2022/07/09 08:56:12;;;;;;;;;4.00;4.00;;;;;28.29;36.54;102146.75;5076792;27;45980;-60
2022/07/09 08:58:38;;;;;;;;;6.60;5.20;;;;;28.73;37.94;102152.91;5074988;28;45448;-60
2022/07/09 09:01:06;;;;;;;;;4.00;4.00;;;;;29.07;34.27;102152.84;5076815;27;45378;-59
2022/07/09 09:03:32;;;;;;;;;4.60;3.60;;;;;29.21;34.51;102140.34;5077177;27;45411;-61
2022/07/09 09:06:06;;;;;;;;;5.00;5.00;;;;;29.54;35.26;102135.72;5078078;27;46057;-61
2022/07/09 09:08:36;;;;;;;;;3.40;2.80;;;;;29.79;32.94;102147.50;5077095;27;45424;-59
2022/07/09 09:11:06;;;;;;;;;4.00;4.00;;;;;30.15;34.39;102139.72;5075254;28;45282;-60
2022/07/09 09:13:42;;;;;;;;;4.00;4.00;;;;;30.59;34.19;102139.19;5076530;27;45357;-59
2022/07/09 09:16:09;;;;;;;;;4.60;4.60;;;;;30.80;33.61;102133.94;5076044;27;45430;-59
2022/07/09 09:18:42;;;;;;;;;8.40;6.60;;;;;31.20;33.42;102140.22;5076125;27;45410;-59
2022/07/09 09:21:09;;;;;;;;;3.00;3.00;;;;;31.58;32.27;102128.19;5076132;27;45429;-60
2022/07/09 09:23:41;;;;;;;;;6.00;6.00;;;;;31.95;32.89;102127.31;5076465;27;45577;-57
2022/07/09 09:26:17;;;;;;;;;4.00;4.00;;;;;32.22;31.91;102136.78;5076380;27;47463;-60
2022/07/09 09:28:53;;;;;;;;;5.00;4.40;;;;;32.35;29.75;102132.53;5074527;27;45474;-61
2022/07/09 09:31:38;;;;;;;;;6.00;5.00;;;;;32.35;30.59;102136.13;5076225;27;45362;-61
2022/07/09 09:34:06;;;;;;;;;9.20;7.80;;;;;32.55;32.40;102136.34;5075760;27;45651;-61
2022/07/09 09:36:37;;;;;;;;;4.60;4.60;;;;;32.77;29.26;102132.59;5075955;27;46308;-59
2022/07/09 09:39:18;;;;;;;;;4.00;4.00;;;;;32.77;29.88;102138.13;5076120;27;45418;-61
2022/07/09 09:41:49;;;;;;;;;4.00;4.00;;;;;32.69;28.94;102142.91;5076261;27;45279;-60
2022/07/09 09:44:19;;;;;;;;;6.00;6.00;;;;;32.82;29.82;102143.94;5076333;27;45412;-61
2022/07/09 09:46:46;;;;;;;;;5.60;4.00;;;;;33.21;29.98;102142.63;5075417;27;45571;-60
2022/07/09 09:49:14;;;;;;;;;4.40;4.00;;;;;33.66;29.46;102135.81;5075714;27;45354;-62
2022/07/09 09:51:48;;;;;;;;;4.00;4.00;;;;;34.03;29.37;102142.03;5077801;27;45377;-61
2022/07/09 09:54:14;;;;;;;;;3.80;3.80;;;;;34.15;27.40;102131.28;5079459;27;45598;-61
2022/07/09 09:56:40;;;;;;;;;5.00;5.00;;;;;33.99;28.12;102140.75;5078869;27;45360;-61
2022/07/09 09:59:06;;;;;;;;;4.00;4.00;;;;;33.93;29.23;102130.50;5077476;27;45208;-60
2022/07/09 10:01:32;;;;;;;;;11.50;10.75;;;;;34.18;27.87;102131.72;5078813;27;45458;-60
2022/07/09 10:03:59;;;;;;;;;2.80;2.80;;;;;34.36;27.58;102122.84;5079220;28;45561;-61
2022/07/09 10:06:26;;;;;;;;;6.20;5.80;;;;;34.57;28.10;102133.81;5079077;27;46582;-60
2022/07/09 10:08:52;;;;;;;;;4.00;4.00;;;;;34.89;27.56;102136.91;5079109;27;45423;-61
2022/07/09 10:11:17;;;;;;;;;3.25;3.25;;;;;35.02;27.23;102133.31;5078989;27;45460;-60
2022/07/09 10:13:50;;;;;;;;;6.00;5.00;;;;;34.94;27.34;102116.94;5079098;27;46148;-60
2022/07/09 10:16:16;;;;;;;;;8.20;4.40;;;;;34.97;27.65;102130.34;5077256;27;46521;-61
2022/07/09 10:18:52;;;;;;;;;3.20;3.20;;;;;34.63;27.70;102114.69;5078711;27;45342;-61
2022/07/09 10:21:17;;;;;;;;;4.80;4.80;;;;;33.91;27.48;102132.63;5078997;27;45787;-60
2022/07/09 10:23:52;;;;;;;;;5.00;5.00;;;;;33.50;28.81;102124.25;5079086;27;45959;-59
2022/07/09 10:26:18;;;;;;;;;4.80;3.00;;;;;33.46;29.68;102122.91;5078953;27;45344;-59
2022/07/09 10:28:43;;;;;;;;;4.00;4.00;;;;;33.25;28.38;102126.53;5078909;27;45423;-60
2022/07/09 10:31:09;;;;;;;;;3.75;3.75;;;;;32.79;27.49;102121.38;5079034;27;45366;-60
2022/07/09 10:33:35;;;;;;;;;1.25;1.25;;;;;32.43;28.42;102132.44;5078937;27;45366;-59
2022/07/09 10:36:13;;;;;;;;;4.00;4.00;;;;;32.08;29.70;102126.63;5078949;27;46238;-60
2022/07/09 10:38:39;;;;;;;;;3.40;3.40;;;;;31.79;30.27;102113.72;5078850;27;45445;-59
2022/07/09 10:41:05;;;;;;;;;7.25;4.00;;;;;31.51;30.85;102116.19;5078783;27;45342;-60
2022/07/09 10:43:49;;;;;;;;;4.80;4.80;;;;;31.35;30.77;102102.63;5079043;27;45586;-59
2022/07/09 10:46:15;;;;;;;;;5.00;4.80;;;;;31.27;31.52;102099.97;5077369;27;46290;-57
2022/07/09 10:48:42;;;;;;;;;4.60;4.60;;;;;31.05;31.53;102105.25;5078645;27;45586;-59
2022/07/09 10:51:07;;;;;;;;;3.60;3.20;;;;;30.77;31.82;102102.22;5078969;27;45356;-59
2022/07/09 10:53:33;;;;;;;;;4.25;4.25;;;;;30.37;32.89;102110.66;5079155;27;45619;-59
2022/07/09 10:55:59;;;;;;;;;6.25;6.25;;;;;30.12;33.17;102101.69;5078776;27;45358;-60
2022/07/09 10:58:25;;;;;;;;;6.00;6.00;;;;;29.98;32.90;102105.13;5077920;27;45429;-60
2022/07/09 11:00:56;;;;;;;;;5.00;3.60;;;;;29.77;32.83;102095.59;5079309;27;45323;-58
2022/07/09 11:03:28;;;;;;;;;6.00;4.40;;;;;29.32;33.73;102086.06;5077763;27;45337;-60
2022/07/09 11:05:54;;;;;;;;;4.00;4.00;;;;;29.44;34.42;102097.53;5077112;27;45363;-60
2022/07/09 11:08:20;;;;;;;;;4.00;4.00;;;;;29.45;33.06;102085.53;5077850;28;45446;-59
2022/07/09 11:10:45;;;;;;;;;5.00;5.00;;;;;29.36;33.91;102079.19;5078187;27;45511;-59
2022/07/09 11:13:11;;;;;;;;;4.75;4.75;;;;;29.35;33.91;102082.97;5078594;27;45815;-60
2022/07/09 11:15:38;;;;;;;;;4.25;4.25;;;;;29.34;33.77;102073.03;5076777;27;45405;-62